Conestee, South Carolina
Current Conditions -  °F | °C
As of 2:47 PM on Friday 21 Nov 2014 (Local Time) from KGYH Reporting Station
Clear Clear  
Wind Chill: 57°   Ceiling: Unl
Heat Index: 57°   Visibility: 10mi
Dew Point: 16°   Wind: 0mph
Humidity: 20%   Direction: NA
Pressure: 30.35"   Gusts: NA
Location:  34.77°N, 82.35°W
Report Text: KGYH 211947Z 00000KT 10SM CLR 14/M09 A3035
Loading
Personal Weather Stations






























Interactive Weather Map New forecast layout! Learn more

10-Day Weather Forecast

Advertisements
Track Severe Weather on mobile